Terminal Aerodrome Forecast
Issued by NWS Pocatello, ID

Home | Current Version | Previous Version | Text Only | Print | Product List | Glossary On
Versions: 1 2 3 4 5 6 7 8 9 10 11 12 13 14 15 16 17 18 19 20 21 22 23 24 25 26 27 28
898
FTUS45 KPIH 280332 AAC
TAFPIH
TAF AMD
KPIH 280332Z 2804/2824 24015KT P6SM BKN040 OVC060
     FM280500 24008KT 4SM -SN BR SCT015 BKN025 OVC040
     FM280800 21008KT P6SM SCT008 BKN050 OVC070
     FM281800 23015KT P6SM SCT050 SCT180=

USA.gov is the U.S. government's official web portal to all federal, state and local government web resources and services.